Time;durP1;ratioP1;P1;durP2;ratioP2;P2;SDS_P1;SDS_P2;PMS_P1;PMS_P2;Temp;Humidity;BMP_temperature;BMP_pressure;BME280_temperature;BME280_humidity;BME280_pressure;Samples;Min_cycle;Max_cycle;Signal;HPM_P1;HPM_P2
2023/03/08 00:02:11;;;;;;;;;;;;;;;;;;6301891;22;20333;-52
2023/03/08 00:04:44;;;;;;;;;;;;;;;;;;6303740;22;19954;-52
2023/03/08 00:07:12;;;;;;;;;;;;;;;;;;6301284;22;19976;-61
2023/03/08 00:09:46;;;;;;;;;;;;;;;;;;6302663;22;19922;-61
2023/03/08 00:12:13;;;;;;;;;;;;;;;;;;6303111;22;19925;-60
2023/03/08 00:14:40;;;;;;;;;;;;;;;;;;6302235;22;19961;-61
2023/03/08 00:17:13;;;;;;;;;;;;;;;;;;6301523;22;19994;-62
2023/03/08 00:19:40;;;;;;;;;;;;;;;;;;6302956;22;20021;-61
2023/03/08 00:22:14;;;;;;;;;;;;;;;;;;6302229;22;19990;-55
2023/03/08 00:24:41;;;;;;;;;;;;;;;;;;6301618;22;20006;-53
2023/03/08 00:27:08;;;;;;;;;;;;;;;;;;6301825;22;19914;-54
2023/03/08 00:29:42;;;;;;;;;;;;;;;;;;6302583;22;19923;-54
2023/03/08 00:32:09;;;;;;;;;;;;;;;;;;6302492;22;19997;-54
2023/03/08 00:34:45;;;;;;;;;;;;;;;;;;6301326;22;20297;-55
2023/03/08 00:37:12;;;;;;;;;;;;;;;;;;6301887;22;19976;-55
2023/03/08 00:39:47;;;;;;;;;;;;;;;;;;6302189;22;20307;-55
2023/03/08 00:42:14;;;;;;;;;;;;;;;;;;6302934;22;19915;-55
2023/03/08 00:44:41;;;;;;;;;;;;;;;;;;6302334;22;19982;-53
2023/03/08 00:47:14;;;;;;;;;;;;;;;;;;6301486;22;19925;-54
2023/03/08 00:49:41;;;;;;;;;;;;;;;;;;6301554;22;19915;-57
2023/03/08 00:52:15;;;;;;;;;;;;;;;;;;6302180;22;19986;-61
2023/03/08 00:54:42;;;;;;;;;;;;;;;;;;6301417;22;19925;-61
2023/03/08 00:57:10;;;;;;;;;;;;;;;;;;6302424;22;20382;-61
2023/03/08 00:59:43;;;;;;;;;;;;;;;;;;6302186;22;20021;-60
2023/03/08 01:02:11;;;;;;;;;;;;;;;;;;6301834;22;20573;-60
2023/03/08 01:04:45;;;;;;;;;;;;;;;;;;6301184;22;20431;-60
2023/03/08 01:07:12;;;;;;;;;;;;;;;;;;6300644;22;20021;-60
2023/03/08 01:09:39;;;;;;;;;;;;;;;;;;6303001;22;19954;-56
2023/03/08 01:12:13;;;;;;;;;;;;;;;;;;6301515;22;19931;-52
2023/03/08 01:14:40;;;;;;;;;;;;;;;;;;6302118;22;20319;-53
2023/03/08 01:17:14;;;;;;;;;;;;;;;;;;6300966;22;20202;-56
2023/03/08 01:19:41;;;;;;;;;;;;;;;;;;6301639;22;19968;-60
2023/03/08 01:22:08;;;;;;;;;;;;;;;;;;6301620;22;19942;-55
2023/03/08 01:24:42;;;;;;;;;;;;;;;;;;6302017;22;20769;-55
2023/03/08 01:27:09;;;;;;;;;;;;;;;;;;6299962;22;20408;-51
2023/03/08 01:29:36;;;;;;;;;;;;;;;;;;6302160;22;19918;-55
2023/03/08 01:32:10;;;;;;;;;;;;;;;;;;6302005;22;20174;-55
2023/03/08 01:34:37;;;;;;;;;;;;;;;;;;6300320;22;19915;-55
2023/03/08 01:37:11;;;;;;;;;;;;;;;;;;6301976;22;20769;-49
2023/03/08 01:39:38;;;;;;;;;;;;;;;;;;6302226;22;19915;-48
2023/03/08 01:42:06;;;;;;;;;;;;;;;;;;6298619;22;19921;-51
2023/03/08 01:44:39;;;;;;;;;;;;;;;;;;6301204;22;19990;-50
2023/03/08 01:47:06;;;;;;;;;;;;;;;;;;6301175;22;19986;-53
2023/03/08 01:49:40;;;;;;;;;;;;;;;;;;6301183;22;19985;-61
2023/03/08 01:52:07;;;;;;;;;;;;;;;;;;6301058;22;19997;-62
2023/03/08 01:54:41;;;;;;;;;;;;;;;;;;6276451;22;19950;-61
2023/03/08 01:57:09;;;;;;;;;;;;;;;;;;6300145;22;20260;-62
2023/03/08 01:59:43;;;;;;;;;;;;;;;;;;6301373;22;20216;-61
2023/03/08 02:02:10;;;;;;;;;;;;;;;;;;6301387;22;20261;-61
2023/03/08 02:04:37;;;;;;;;;;;;;;;;;;6301249;22;19957;-51
2023/03/08 02:07:11;;;;;;;;;;;;;;;;;;6299280;22;20425;-52
2023/03/08 02:09:38;;;;;;;;;;;;;;;;;;6300732;22;20313;-55
2023/03/08 02:12:12;;;;;;;;;;;;;;;;;;6300449;22;19958;-54
2023/03/08 02:14:39;;;;;;;;;;;;;;;;;;6300786;22;20017;-60
2023/03/08 02:17:06;;;;;;;;;;;;;;;;;;6300838;22;19925;-52
2023/03/08 02:19:39;;;;;;;;;;;;;;;;;;6301253;22;19993;-50
2023/03/08 02:22:06;;;;;;;;;;;;;;;;;;6301719;22;19950;-47
2023/03/08 02:24:41;;;;;;;;;;;;;;;;;;6302356;22;19929;-50
2023/03/08 02:27:08;;;;;;;;;;;;;;;;;;6267286;22;19921;-45
2023/03/08 02:29:35;;;;;;;;;;;;;;;;;;6271332;22;19915;-52
2023/03/08 02:32:08;;;;;;;;;;;;;;;;;;6268210;22;19994;-50
2023/03/08 02:34:36;;;;;;;;;;;;;;;;;;6269642;22;19919;-51
2023/03/08 02:37:10;;;;;;;;;;;;;;;;;;6269927;22;20307;-52
2023/03/08 02:39:37;;;;;;;;;;;;;;;;;;6270336;22;19999;-52
2023/03/08 02:42:04;;;;;;;;;;;;;;;;;;6270407;22;19950;-47
2023/03/08 02:44:37;;;;;;;;;;;;;;;;;;6270887;22;19915;-52
2023/03/08 02:47:04;;;;;;;;;;;;;;;;;;6269065;22;19915;-54
2023/03/08 02:49:39;;;;;;;;;;;;;;;;;;6268587;22;19919;-51
2023/03/08 02:52:06;;;;;;;;;;;;;;;;;;6269121;22;19915;-54
2023/03/08 02:54:33;;;;;;;;;;;;;;;;;;6268599;22;19966;-53
2023/03/08 02:57:07;;;;;;;;;;;;;;;;;;6267835;22;19997;-54
2023/03/08 02:59:34;;;;;;;;;;;;;;;;;;6270625;22;19965;-50
2023/03/08 03:02:01;;;;;;;;;;;;;;;;;;6271682;22;19939;-54
2023/03/08 03:04:34;;;;;;;;;;;;;;;;;;6268577;22;19997;-54
2023/03/08 03:07:01;;;;;;;;;;;;;;;;;;6269132;22;20349;-55
2023/03/08 03:09:36;;;;;;;;;;;;;;;;;;6271842;22;19945;-51
2023/03/08 03:12:03;;;;;;;;;;;;;;;;;;6269712;22;20255;-53
2023/03/08 03:14:30;;;;;;;;;;;;;;;;;;6271879;22;20003;-50
2023/03/08 03:17:03;;;;;;;;;;;;;;;;;;6271857;22;19994;-56
2023/03/08 03:19:30;;;;;;;;;;;;;;;;;;6271805;22;19987;-55
2023/03/08 03:22:05;;;;;;;;;;;;;;;;;;6271786;22;19955;-53
2023/03/08 03:24:32;;;;;;;;;;;;;;;;;;6272260;22;20137;-53
2023/03/08 03:26:59;;;;;;;;;;;;;;;;;;6297132;22;19954;-51
2023/03/08 03:29:32;;;;;;;;;;;;;;;;;;6301549;22;20523;-53
2023/03/08 03:31:59;;;;;;;;;;;;;;;;;;6302152;22;19927;-52
2023/03/08 03:34:34;;;;;;;;;;;;;;;;;;6300164;22;19946;-56
2023/03/08 03:37:01;;;;;;;;;;;;;;;;;;6303223;22;20225;-55
2023/03/08 03:39:32;;;;;;;;;;;;;;;;;;6301052;22;19993;-55
2023/03/08 03:42:06;;;;;;;;;;;;;;;;;;6303004;22;19958;-55
2023/03/08 03:44:33;;;;;;;;;;;;;;;;;;6303111;22;19985;-52
2023/03/08 03:47:00;;;;;;;;;;;;;;;;;;6301104;22;19915;-53
2023/03/08 03:49:33;;;;;;;;;;;;;;;;;;6303461;22;19920;-49
2023/03/08 03:52:01;;;;;;;;;;;;;;;;;;6302538;22;19978;-52
2023/03/08 03:54:35;;;;;;;;;;;;;;;;;;6301354;22;19942;-48
2023/03/08 03:57:02;;;;;;;;;;;;;;;;;;6301476;22;20303;-52
2023/03/08 03:59:29;;;;;;;;;;;;;;;;;;6302296;22;20021;-51
2023/03/08 04:02:03;;;;;;;;;;;;;;;;;;6299125;22;19954;-49
2023/03/08 04:04:30;;;;;;;;;;;;;;;;;;6300454;22;19925;-47
2023/03/08 04:06:57;;;;;;;;;;;;;;;;;;6302359;22;19994;-54
2023/03/08 04:09:30;;;;;;;;;;;;;;;;;;6301902;22;19946;-47
2023/03/08 04:12:04;;;;;;;;;;;;;;;;;;6302896;22;19982;-49
2023/03/08 04:14:39;;;;;;;;;;;;;;;;;;6301567;22;19926;-52
2023/03/08 04:17:06;;;;;;;;;;;;;;;;;;6301893;22;19982;-53
2023/03/08 04:19:40;;;;;;;;;;;;;;;;;;6302224;22;19938;-55
2023/03/08 04:22:07;;;;;;;;;;;;;;;;;;6302080;22;19915;-56
2023/03/08 04:24:34;;;;;;;;;;;;;;;;;;6301482;22;19992;-58
2023/03/08 04:27:08;;;;;;;;;;;;;;;;;;6300311;22;19925;-54
2023/03/08 04:29:35;;;;;;;;;;;;;;;;;;6301532;22;20297;-48
2023/03/08 04:32:08;;;;;;;;;;;;;;;;;;6275613;22;19990;-56
2023/03/08 04:34:36;;;;;;;;;;;;;;;;;;6302011;22;19964;-47
2023/03/08 04:37:03;;;;;;;;;;;;;;;;;;6301897;22;19954;-52
2023/03/08 04:39:37;;;;;;;;;;;;;;;;;;6275544;22;19919;-54
2023/03/08 04:42:04;;;;;;;;;;;;;;;;;;6302658;22;19915;-49
2023/03/08 04:44:37;;;;;;;;;;;;;;;;;;6301790;22;20196;-54
2023/03/08 04:47:05;;;;;;;;;;;;;;;;;;6302994;22;19915;-60
2023/03/08 04:49:32;;;;;;;;;;;;;;;;;;6301838;22;19939;-61
2023/03/08 04:52:05;;;;;;;;;;;;;;;;;;6302480;22;19914;-61
2023/03/08 04:54:32;;;;;;;;;;;;;;;;;;6300685;22;19923;-60
2023/03/08 04:57:07;;;;;;;;;;;;;;;;;;6302793;22;19998;-53
2023/03/08 04:59:34;;;;;;;;;;;;;;;;;;6299855;22;20001;-50
2023/03/08 05:02:01;;;;;;;;;;;;;;;;;;6296559;22;19919;-54
2023/03/08 05:04:35;;;;;;;;;;;;;;;;;;6302126;22;19914;-55
2023/03/08 05:07:02;;;;;;;;;;;;;;;;;;6302275;22;19998;-54
2023/03/08 05:09:36;;;;;;;;;;;;;;;;;;6302063;22;19993;-53
2023/03/08 05:12:03;;;;;;;;;;;;;;;;;;6302102;22;19925;-51
2023/03/08 05:14:30;;;;;;;;;;;;;;;;;;6300250;22;19993;-58
2023/03/08 05:17:04;;;;;;;;;;;;;;;;;;6300500;22;19922;-50
2023/03/08 05:19:37;;;;;;;;;;;;;;;;;;6300530;22;19997;-57
2023/03/08 05:22:12;;;;;;;;;;;;;;;;;;6301857;22;19919;-55
2023/03/08 05:24:40;;;;;;;;;;;;;;;;;;6299191;22;19982;-55
2023/03/08 05:27:07;;;;;;;;;;;;;;;;;;6299583;22;19918;-54
2023/03/08 05:29:41;;;;;;;;;;;;;;;;;;6300505;22;19926;-54
2023/03/08 05:32:08;;;;;;;;;;;;;;;;;;6299287;22;19993;-57
2023/03/08 05:34:35;;;;;;;;;;;;;;;;;;6300415;22;20279;-60
2023/03/08 05:37:08;;;;;;;;;;;;;;;;;;6300791;22;20400;-63
2023/03/08 05:39:35;;;;;;;;;;;;;;;;;;6299128;22;19993;-64
2023/03/08 05:42:02;;;;;;;;;;;;;;;;;;6298921;22;19937;-62
2023/03/08 05:44:37;;;;;;;;;;;;;;;;;;6295809;22;19958;-63
2023/03/08 05:47:04;;;;;;;;;;;;;;;;;;6298384;22;19926;-64
2023/03/08 05:49:38;;;;;;;;;;;;;;;;;;6296052;22;19919;-63
2023/03/08 05:52:05;;;;;;;;;;;;;;;;;;6298474;22;20299;-55
2023/03/08 05:54:32;;;;;;;;;;;;;;;;;;6297330;22;20318;-47
2023/03/08 05:57:05;;;;;;;;;;;;;;;;;;6299565;22;19922;-51
2023/03/08 05:59:32;;;;;;;;;;;;;;;;;;6296307;22;19918;-53
2023/03/08 06:02:07;;;;;;;;;;;;;;;;;;6293378;22;20314;-53
2023/03/08 06:04:34;;;;;;;;;;;;;;;;;;6296525;22;20259;-51
2023/03/08 06:07:07;;;;;;;;;;;;;;;;;;6300059;22;19970;-49
2023/03/08 06:09:35;;;;;;;;;;;;;;;;;;6300309;22;20348;-56
2023/03/08 06:12:09;;;;;;;;;;;;;;;;;;6301730;22;20252;-54
2023/03/08 06:14:36;;;;;;;;;;;;;;;;;;6301464;22;20251;-48
2023/03/08 06:17:03;;;;;;;;;;;;;;;;;;6297108;22;20333;-47
2023/03/08 06:19:36;;;;;;;;;;;;;;;;;;6301576;22;19950;-49
2023/03/08 06:22:04;;;;;;;;;;;;;;;;;;6302307;22;19994;-50
2023/03/08 06:24:37;;;;;;;;;;;;;;;;;;6300946;22;19914;-48
2023/03/08 06:27:05;;;;;;;;;;;;;;;;;;6301749;22;20672;-51
2023/03/08 06:29:39;;;;;;;;;;;;;;;;;;6300671;22;19946;-53
2023/03/08 06:32:06;;;;;;;;;;;;;;;;;;6301155;22;20320;-57
2023/03/08 06:34:33;;;;;;;;;;;;;;;;;;6300727;22;19984;-55
2023/03/08 06:37:06;;;;;;;;;;;;;;;;;;6301742;22;19921;-53
2023/03/08 06:39:34;;;;;;;;;;;;;;;;;;6301054;22;19919;-51
2023/03/08 06:42:01;;;;;;;;;;;;;;;;;;6301977;22;19947;-51
2023/03/08 06:44:34;;;;;;;;;;;;;;;;;;6301127;22;19993;-58
2023/03/08 06:47:03;;;;;;;;;;;;;;;;;;6301769;22;19990;-48
2023/03/08 06:49:37;;;;;;;;;;;;;;;;;;6301089;22;20370;-51
2023/03/08 06:52:04;;;;;;;;;;;;;;;;;;6301051;22;20378;-52
2023/03/08 06:54:31;;;;;;;;;;;;;;;;;;6301247;22;19915;-49
2023/03/08 06:57:05;;;;;;;;;;;;;;;;;;6301840;22;20251;-51
2023/03/08 06:59:32;;;;;;;;;;;;;;;;;;6300510;22;19919;-53
2023/03/08 07:01:59;;;;;;;;;;;;;;;;;;6301260;22;19919;-55
2023/03/08 07:04:32;;;;;;;;;;;;;;;;;;6301729;22;20006;-52
2023/03/08 07:07:00;;;;;;;;;;;;;;;;;;6300322;22;19930;-54
2023/03/08 07:09:34;;;;;;;;;;;;;;;;;;6301808;22;19919;-53
2023/03/08 07:12:01;;;;;;;;;;;;;;;;;;6301827;22;19918;-54
2023/03/08 07:14:28;;;;;;;;;;;;;;;;;;6301050;22;20100;-52
2023/03/08 07:17:01;;;;;;;;;;;;;;;;;;6300880;22;19926;-54
2023/03/08 07:19:29;;;;;;;;;;;;;;;;;;6301524;22;20005;-55
2023/03/08 07:22:03;;;;;;;;;;;;;;;;;;6300864;22;19985;-49
2023/03/08 07:24:30;;;;;;;;;;;;;;;;;;6300897;22;20252;-55
2023/03/08 07:26:57;;;;;;;;;;;;;;;;;;6301029;22;19914;-56
2023/03/08 07:29:30;;;;;;;;;;;;;;;;;;6300659;22;19914;-54
2023/03/08 07:31:57;;;;;;;;;;;;;;;;;;6301098;22;20005;-55
2023/03/08 07:34:32;;;;;;;;;;;;;;;;;;6302390;22;19921;-57
2023/03/08 07:36:59;;;;;;;;;;;;;;;;;;6299977;22;19980;-57
2023/03/08 07:39:33;;;;;;;;;;;;;;;;;;6301868;22;19949;-56
2023/03/08 07:42:00;;;;;;;;;;;;;;;;;;6301214;22;20001;-56
2023/03/08 07:44:27;;;;;;;;;;;;;;;;;;6300352;22;19954;-54
2023/03/08 07:47:00;;;;;;;;;;;;;;;;;;6301366;22;19915;-52
2023/03/08 07:49:28;;;;;;;;;;;;;;;;;;6303238;22;20002;-52
2023/03/08 07:52:02;;;;;;;;;;;;;;;;;;6302465;22;19993;-51
2023/03/08 07:54:29;;;;;;;;;;;;;;;;;;6303525;22;19922;-51
2023/03/08 07:56:56;;;;;;;;;;;;;;;;;;6303485;22;20599;-56
2023/03/08 07:59:29;;;;;;;;;;;;;;;;;;6302090;22;19925;-53
2023/03/08 08:01:57;;;;;;;;;;;;;;;;;;6303239;22;19961;-56
2023/03/08 08:04:31;;;;;;;;;;;;;;;;;;6303968;22;19921;-56
2023/03/08 08:06:59;;;;;;;;;;;;;;;;;;6302226;22;19918;-55
2023/03/08 08:09:26;;;;;;;;;;;;;;;;;;6303717;22;19919;-57
2023/03/08 08:12:00;;;;;;;;;;;;;;;;;;6302923;22;20256;-64
2023/03/08 08:14:27;;;;;;;;;;;;;;;;;;6301992;22;20584;-61
2023/03/08 08:17:01;;;;;;;;;;;;;;;;;;6303445;22;19914;-61
2023/03/08 08:19:28;;;;;;;;;;;;;;;;;;6303109;22;19950;-61
2023/03/08 08:21:55;;;;;;;;;;;;;;;;;;6275449;22;19915;-61
2023/03/08 08:24:29;;;;;;;;;;;;;;;;;;6303197;22;19919;-61
2023/03/08 08:26:56;;;;;;;;;;;;;;;;;;6302243;22;19977;-61
2023/03/08 08:29:30;;;;;;;;;;;;;;;;;;6302222;22;19954;-57
2023/03/08 08:31:57;;;;;;;;;;;;;;;;;;6302544;22;19914;-56
2023/03/08 08:34:24;;;;;;;;;;;;;;;;;;6303010;22;19993;-53
2023/03/08 08:36:58;;;;;;;;;;;;;;;;;;6302730;22;19921;-49
2023/03/08 08:39:25;;;;;;;;;;;;;;;;;;6302340;22;20380;-57
2023/03/08 08:41:59;;;;;;;;;;;;;;;;;;6303080;22;19918;-49
2023/03/08 08:44:26;;;;;;;;;;;;;;;;;;6302300;22;20018;-50
2023/03/08 08:46:53;;;;;;;;;;;;;;;;;;6302986;22;19919;-50
2023/03/08 08:49:26;;;;;;;;;;;;;;;;;;6302604;22;20025;-63
2023/03/08 08:51:54;;;;;;;;;;;;;;;;;;6301780;22;20237;-63
2023/03/08 08:54:21;;;;;;;;;;;;;;;;;;6302258;22;20344;-64
2023/03/08 08:56:55;;;;;;;;;;;;;;;;;;6301997;22;20260;-63
2023/03/08 08:59:22;;;;;;;;;;;;;;;;;;6301633;22;19919;-63
2023/03/08 09:01:55;;;;;;;;;;;;;;;;;;6303343;22;19925;-63
2023/03/08 09:04:23;;;;;;;;;;;;;;;;;;6301805;22;19919;-63
2023/03/08 09:06:52;;;;;;;;;;;;;;;;;;6302830;22;19961;-56
2023/03/08 09:09:26;;;;;;;;;;;;;;;;;;6303097;22;19922;-54
2023/03/08 09:11:53;;;;;;;;;;;;;;;;;;6301735;22;19942;-55
2023/03/08 09:14:27;;;;;;;;;;;;;;;;;;6301358;22;20303;-54
2023/03/08 09:16:54;;;;;;;;;;;;;;;;;;6303082;22;19914;-57
2023/03/08 09:19:21;;;;;;;;;;;;;;;;;;6300753;22;19929;-53
2023/03/08 09:21:55;;;;;;;;;;;;;;;;;;6301228;22;20348;-62
2023/03/08 09:24:22;;;;;;;;;;;;;;;;;;6302320;22;19919;-62
2023/03/08 09:26:56;;;;;;;;;;;;;;;;;;6301584;22;19986;-60
2023/03/08 09:29:23;;;;;;;;;;;;;;;;;;6301348;22;20392;-59
2023/03/08 09:31:50;;;;;;;;;;;;;;;;;;6299005;22;19966;-59
2023/03/08 09:34:24;;;;;;;;;;;;;;;;;;6300905;22;20340;-60
2023/03/08 09:36:51;;;;;;;;;;;;;;;;;;6303067;22;19915;-49
2023/03/08 09:39:26;;;;;;;;;;;;;;;;;;6301853;22;20403;-49
2023/03/08 09:41:53;;;;;;;;;;;;;;;;;;6301447;22;19994;-49
2023/03/08 09:44:20;;;;;;;;;;;;;;;;;;6301292;22;19919;-50
2023/03/08 09:46:54;;;;;;;;;;;;;;;;;;6302517;22;19965;-59
2023/03/08 09:49:21;;;;;;;;;;;;;;;;;;6302047;22;19915;-60
2023/03/08 09:51:48;;;;;;;;;;;;;;;;;;6301843;22;19921;-60
2023/03/08 09:54:22;;;;;;;;;;;;;;;;;;6301849;22;20409;-60
2023/03/08 09:56:49;;;;;;;;;;;;;;;;;;6301660;22;19989;-61
2023/03/08 09:59:16;;;;;;;;;;;;;;;;;;6300682;22;19980;-60
2023/03/08 10:01:50;;;;;;;;;;;;;;;;;;6301676;22;19914;-60
2023/03/08 10:04:24;;;;;;;;;;;;;;;;;;6302423;22;19919;-58
2023/03/08 10:06:51;;;;;;;;;;;;;;;;;;6302513;22;19919;-58
2023/03/08 10:09:25;;;;;;;;;;;;;;;;;;6302191;22;19922;-59
2023/03/08 10:11:52;;;;;;;;;;;;;;;;;;6299760;22;19989;-58
2023/03/08 10:14:26;;;;;;;;;;;;;;;;;;6301438;22;19918;-49
2023/03/08 10:16:53;;;;;;;;;;;;;;;;;;6302453;22;19997;-49
2023/03/08 10:19:27;;;;;;;;;;;;;;;;;;6301492;22;19985;-48
2023/03/08 10:21:54;;;;;;;;;;;;;;;;;;6301353;22;19921;-54
2023/03/08 10:24:28;;;;;;;;;;;;;;;;;;6300075;22;19945;-53
2023/03/08 10:26:55;;;;;;;;;;;;;;;;;;6301223;22;19942;-52
2023/03/08 10:29:30;;;;;;;;;;;;;;;;;;6301677;22;19934;-47
2023/03/08 10:32:04;;;;;;;;;;;;;;;;;;6302401;22;20006;-55
2023/03/08 10:34:38;;;;;;;;;;;;;;;;;;6300824;22;19985;-54
2023/03/08 10:37:06;;;;;;;;;;;;;;;;;;6302211;22;19989;-48
2023/03/08 10:39:33;;;;;;;;;;;;;;;;;;6301375;22;19919;-52
2023/03/08 10:42:07;;;;;;;;;;;;;;;;;;6300620;22;19998;-53
2023/03/08 10:44:35;;;;;;;;;;;;;;;;;;6301231;22;19921;-53
2023/03/08 10:47:09;;;;;;;;;;;;;;;;;;6302203;22;20345;-47
2023/03/08 10:49:36;;;;;;;;;;;;;;;;;;6300015;22;19925;-46
2023/03/08 10:52:03;;;;;;;;;;;;;;;;;;6301452;22;19925;-48
2023/03/08 10:54:37;;;;;;;;;;;;;;;;;;6301142;22;19993;-46
2023/03/08 10:57:04;;;;;;;;;;;;;;;;;;6300381;22;19925;-45
2023/03/08 10:59:38;;;;;;;;;;;;;;;;;;6301689;22;20001;-46
2023/03/08 11:02:05;;;;;;;;;;;;;;;;;;6302263;22;19915;-61
2023/03/08 11:04:32;;;;;;;;;;;;;;;;;;6300865;22;19954;-61
2023/03/08 11:07:06;;;;;;;;;;;;;;;;;;6301541;22;19949;-61
2023/03/08 11:09:33;;;;;;;;;;;;;;;;;;6301483;22;19926;-61
2023/03/08 11:12:00;;;;;;;;;;;;;;;;;;6300686;22;19915;-55
2023/03/08 11:14:34;;;;;;;;;;;;;;;;;;6301467;22;19919;-59
2023/03/08 11:17:08;;;;;;;;;;;;;;;;;;6301495;22;20013;-59
2023/03/08 11:19:35;;;;;;;;;;;;;;;;;;6300927;22;19925;-60
2023/03/08 11:22:09;;;;;;;;;;;;;;;;;;6300154;22;19925;-59
2023/03/08 11:24:36;;;;;;;;;;;;;;;;;;6302357;22;19923;-60
2023/03/08 11:27:10;;;;;;;;;;;;;;;;;;6302825;22;19915;-59
2023/03/08 11:29:37;;;;;;;;;;;;;;;;;;6304082;22;19938;-56
2023/03/08 11:32:10;;;;;;;;;;;;;;;;;;6303560;22;19993;-58
2023/03/08 11:34:38;;;;;;;;;;;;;;;;;;6302295;22;20248;-58
2023/03/08 11:37:12;;;;;;;;;;;;;;;;;;6303962;22;19982;-55
2023/03/08 11:39:39;;;;;;;;;;;;;;;;;;6301947;22;20344;-50
2023/03/08 11:42:06;;;;;;;;;;;;;;;;;;6302688;22;19940;-59
2023/03/08 11:44:40;;;;;;;;;;;;;;;;;;6303211;22;19915;-59
2023/03/08 11:47:07;;;;;;;;;;;;;;;;;;6303438;22;19961;-60
2023/03/08 11:49:40;;;;;;;;;;;;;;;;;;6302268;22;19919;-59
2023/03/08 11:52:08;;;;;;;;;;;;;;;;;;6303567;22;19918;-59
2023/03/08 11:54:42;;;;;;;;;;;;;;;;;;6303471;22;19922;-59
2023/03/08 11:57:09;;;;;;;;;;;;;;;;;;6302835;22;19950;-61
2023/03/08 11:59:43;;;;;;;;;;;;;;;;;;6301439;22;20244;-60
2023/03/08 12:02:10;;;;;;;;;;;;;;;;;;6303105;22;19921;-61
2023/03/08 12:04:39;;;;;;;;;;;;;;;;;;6301628;22;20326;-60
2023/03/08 12:07:13;;;;;;;;;;;;;;;;;;6302036;22;19923;-62
2023/03/08 12:09:40;;;;;;;;;;;;;;;;;;6302723;22;19925;-62
2023/03/08 12:12:14;;;;;;;;;;;;;;;;;;6302239;22;19957;-51
2023/03/08 12:14:41;;;;;;;;;;;;;;;;;;6302902;22;19915;-47
2023/03/08 12:17:15;;;;;;;;;;;;;;;;;;6303023;22;19982;-51
2023/03/08 12:19:42;;;;;;;;;;;;;;;;;;6301294;22;19919;-49
2023/03/08 12:22:16;;;;;;;;;;;;;;;;;;6303092;22;20359;-50
2023/03/08 12:24:43;;;;;;;;;;;;;;;;;;6302235;22;19998;-52
2023/03/08 12:27:17;;;;;;;;;;;;;;;;;;6302583;22;19989;-54
2023/03/08 12:29:44;;;;;;;;;;;;;;;;;;6301562;22;19921;-49
2023/03/08 12:32:18;;;;;;;;;;;;;;;;;;6303359;22;19968;-50
2023/03/08 12:34:45;;;;;;;;;;;;;;;;;;6301660;22;19926;-50
2023/03/08 12:37:19;;;;;;;;;;;;;;;;;;6303183;22;19926;-52
2023/03/08 12:39:46;;;;;;;;;;;;;;;;;;6302599;22;19929;-51
2023/03/08 12:42:20;;;;;;;;;;;;;;;;;;6302554;22;19915;-49
2023/03/08 12:44:47;;;;;;;;;;;;;;;;;;6302321;22;20311;-53
2023/03/08 12:47:21;;;;;;;;;;;;;;;;;;6302537;22;19941;-54
2023/03/08 12:49:48;;;;;;;;;;;;;;;;;;6302307;22;19919;-51
2023/03/08 12:52:22;;;;;;;;;;;;;;;;;;6302761;22;19927;-52
2023/03/08 12:54:49;;;;;;;;;;;;;;;;;;6302991;22;19945;-61
2023/03/08 12:57:23;;;;;;;;;;;;;;;;;;6302704;22;19915;-61
2023/03/08 12:59:50;;;;;;;;;;;;;;;;;;6301842;22;20351;-62
2023/03/08 13:02:17;;;;;;;;;;;;;;;;;;6275447;22;19914;-61
2023/03/08 13:04:51;;;;;;;;;;;;;;;;;;6301674;22;19919;-62
2023/03/08 13:07:18;;;;;;;;;;;;;;;;;;6301581;22;19988;-53
2023/03/08 13:09:52;;;;;;;;;;;;;;;;;;6299881;22;19926;-48
2023/03/08 13:12:19;;;;;;;;;;;;;;;;;;6301039;22;19915;-46
2023/03/08 13:14:53;;;;;;;;;;;;;;;;;;6300705;22;19918;-48
2023/03/08 13:17:20;;;;;;;;;;;;;;;;;;6296843;22;19976;-49
2023/03/08 13:19:48;;;;;;;;;;;;;;;;;;6300203;22;19919;-53
2023/03/08 13:22:22;;;;;;;;;;;;;;;;;;6302056;22;19925;-53
2023/03/08 13:24:49;;;;;;;;;;;;;;;;;;6300153;22;20343;-48
2023/03/08 13:27:23;;;;;;;;;;;;;;;;;;6300639;22;19918;-51
2023/03/08 13:29:50;;;;;;;;;;;;;;;;;;6300769;22;20375;-55
2023/03/08 13:32:24;;;;;;;;;;;;;;;;;;6301459;22;19976;-55
2023/03/08 13:34:51;;;;;;;;;;;;;;;;;;6300311;22;20612;-57
2023/03/08 13:37:25;;;;;;;;;;;;;;;;;;6301153;22;19989;-58
2023/03/08 13:39:52;;;;;;;;;;;;;;;;;;6300796;22;19990;-58
2023/03/08 13:42:26;;;;;;;;;;;;;;;;;;6301333;22;19944;-59
2023/03/08 13:45:00;;;;;;;;;;;;;;;;;;6299101;22;19921;-58
2023/03/08 13:47:27;;;;;;;;;;;;;;;;;;6301311;22;19925;-59
2023/03/08 13:50:01;;;;;;;;;;;;;;;;;;6300638;22;19925;-58
2023/03/08 13:52:28;;;;;;;;;;;;;;;;;;6301358;22;19950;-53
2023/03/08 13:54:55;;;;;;;;;;;;;;;;;;6298890;22;20522;-54
2023/03/08 13:57:36;;;;;;;;;;;;;;;;;;6301953;22;19949;-54
2023/03/08 14:00:10;;;;;;;;;;;;;;;;;;6300030;22;19918;-52
2023/03/08 14:02:37;;;;;;;;;;;;;;;;;;6300148;22;20314;-56
2023/03/08 14:05:11;;;;;;;;;;;;;;;;;;6300022;22;19919;-54
2023/03/08 14:07:38;;;;;;;;;;;;;;;;;;6300189;22;19918;-62
2023/03/08 14:10:05;;;;;;;;;;;;;;;;;;6300396;22;19915;-63
2023/03/08 14:12:39;;;;;;;;;;;;;;;;;;6300135;22;20348;-62
2023/03/08 14:15:06;;;;;;;;;;;;;;;;;;6299482;22;19919;-63
2023/03/08 14:17:40;;;;;;;;;;;;;;;;;;6301473;22;20444;-62
2023/03/08 14:20:07;;;;;;;;;;;;;;;;;;6300279;22;19990;-62
2023/03/08 14:22:41;;;;;;;;;;;;;;;;;;6299651;22;19972;-63
2023/03/08 14:25:08;;;;;;;;;;;;;;;;;;6299670;22;20355;-64
2023/03/08 14:27:35;;;;;;;;;;;;;;;;;;6300381;22;19941;-64
2023/03/08 14:30:09;;;;;;;;;;;;;;;;;;6300501;22;19915;-64
2023/03/08 14:32:37;;;;;;;;;;;;;;;;;;6300443;22;20194;-64
2023/03/08 14:35:04;;;;;;;;;;;;;;;;;;6300087;22;19922;-56
2023/03/08 14:37:38;;;;;;;;;;;;;;;;;;6301521;22;19973;-56
2023/03/08 14:40:05;;;;;;;;;;;;;;;;;;6299942;22;19993;-53
2023/03/08 14:42:32;;;;;;;;;;;;;;;;;;6300113;22;20505;-55
2023/03/08 14:45:06;;;;;;;;;;;;;;;;;;6299242;22;20353;-55
2023/03/08 14:47:33;;;;;;;;;;;;;;;;;;6300923;22;19919;-52
2023/03/08 14:50:07;;;;;;;;;;;;;;;;;;6300375;22;19925;-54
2023/03/08 14:52:34;;;;;;;;;;;;;;;;;;6301657;22;19915;-50
2023/03/08 14:55:08;;;;;;;;;;;;;;;;;;6299534;22;20262;-59
2023/03/08 14:57:35;;;;;;;;;;;;;;;;;;6302313;22;19998;-45
2023/03/08 15:00:12;;;;;;;;;;;;;;;;;;6302057;22;19985;-44
2023/03/08 15:02:39;;;;;;;;;;;;;;;;;;6301934;22;19942;-46
2023/03/08 15:05:13;;;;;;;;;;;;;;;;;;6301397;22;19923;-48
2023/03/08 15:07:45;;;;;;;;;;;;;;;;;;6303420;22;19922;-45
2023/03/08 15:10:12;;;;;;;;;;;;;;;;;;6302011;22;19922;-48
2023/03/08 15:12:46;;;;;;;;;;;;;;;;;;6302124;22;19919;-59
2023/03/08 15:15:13;;;;;;;;;;;;;;;;;;6301222;22;19929;-53
2023/03/08 15:17:47;;;;;;;;;;;;;;;;;;6302764;22;19914;-52
2023/03/08 15:20:14;;;;;;;;;;;;;;;;;;6301899;22;19921;-55
2023/03/08 15:22:41;;;;;;;;;;;;;;;;;;6299941;22;20305;-56
2023/03/08 15:25:15;;;;;;;;;;;;;;;;;;6299803;22;19954;-55
2023/03/08 15:27:49;;;;;;;;;;;;;;;;;;6301366;22;20355;-54
2023/03/08 15:30:23;;;;;;;;;;;;;;;;;;6302106;22;19919;-51
2023/03/08 15:32:50;;;;;;;;;;;;;;;;;;6301921;22;19937;-55
2023/03/08 15:35:17;;;;;;;;;;;;;;;;;;6301683;22;19954;-53
2023/03/08 15:37:51;;;;;;;;;;;;;;;;;;6301606;22;19998;-54
2023/03/08 15:40:18;;;;;;;;;;;;;;;;;;6302242;22;19922;-65
2023/03/08 15:42:52;;;;;;;;;;;;;;;;;;6301904;22;20454;-65
2023/03/08 15:45:19;;;;;;;;;;;;;;;;;;6300938;22;19934;-66
2023/03/08 15:47:53;;;;;;;;;;;;;;;;;;6300395;22;19954;-64
2023/03/08 15:50:20;;;;;;;;;;;;;;;;;;6301218;22;19990;-65
2023/03/08 15:52:47;;;;;;;;;;;;;;;;;;6301699;22;19961;-65
2023/03/08 15:55:21;;;;;;;;;;;;;;;;;;6300199;22;20332;-65
2023/03/08 15:57:51;;;;;;;;;;;;;;;;;;6303231;22;19918;-65
2023/03/08 16:00:32;;;;;;;;;;;;;;;;;;6300875;22;19994;-65
2023/03/08 16:02:59;;;;;;;;;;;;;;;;;;6301803;22;19918;-65
2023/03/08 16:05:33;;;;;;;;;;;;;;;;;;6301031;22;20335;-64
2023/03/08 16:08:00;;;;;;;;;;;;;;;;;;6301704;22;19989;-65
2023/03/08 16:10:27;;;;;;;;;;;;;;;;;;6300822;22;19918;-64
2023/03/08 16:13:01;;;;;;;;;;;;;;;;;;6301373;22;19921;-65
2023/03/08 16:15:28;;;;;;;;;;;;;;;;;;6300846;22;19921;-65
2023/03/08 16:18:01;;;;;;;;;;;;;;;;;;6302081;22;19918;-64
2023/03/08 16:20:28;;;;;;;;;;;;;;;;;;6302110;22;19958;-65
2023/03/08 16:22:55;;;;;;;;;;;;;;;;;;6298935;22;19981;-64
2023/03/08 16:25:29;;;;;;;;;;;;;;;;;;6299873;22;19925;-65
2023/03/08 16:27:56;;;;;;;;;;;;;;;;;;6299843;22;19982;-65
2023/03/08 16:30:31;;;;;;;;;;;;;;;;;;6300973;22;19915;-66
2023/03/08 16:32:58;;;;;;;;;;;;;;;;;;6301028;22;19998;-55
2023/03/08 16:35:25;;;;;;;;;;;;;;;;;;6301421;22;19954;-56
2023/03/08 16:37:59;;;;;;;;;;;;;;;;;;6301701;22;19918;-50
2023/03/08 16:40:29;;;;;;;;;;;;;;;;;;6301566;22;19951;-55
2023/03/08 16:42:57;;;;;;;;;;;;;;;;;;6300592;22;19925;-51
2023/03/08 16:45:31;;;;;;;;;;;;;;;;;;6299910;22;20350;-49
2023/03/08 16:47:58;;;;;;;;;;;;;;;;;;6303074;22;19986;-51
2023/03/08 16:50:32;;;;;;;;;;;;;;;;;;6300624;22;19919;-59
2023/03/08 16:52:59;;;;;;;;;;;;;;;;;;6300880;22;19918;-59
2023/03/08 16:55:26;;;;;;;;;;;;;;;;;;6301348;22;19998;-59
2023/03/08 16:58:00;;;;;;;;;;;;;;;;;;6300379;22;19953;-60
2023/03/08 17:00:27;;;;;;;;;;;;;;;;;;6300310;22;19999;-59
2023/03/08 17:03:01;;;;;;;;;;;;;;;;;;6300974;22;19977;-59
2023/03/08 17:05:28;;;;;;;;;;;;;;;;;;6299668;22;20446;-64